Time;durP1;ratioP1;P1;durP2;ratioP2;P2;SDS_P1;SDS_P2;PMS_P1;PMS_P2;Temp;Humidity;BMP_temperature;BMP_pressure;BME280_temperature;BME280_humidity;BME280_pressure;Samples;Min_cycle;Max_cycle;Signal;HPM_P1;HPM_P2
2022/10/03 00:01:39;;;;;;;;;;;;;;;;;;5070017;28;20013;-60
2022/10/03 00:04:05;;;;;;;;;;;;;;;;;;5073235;28;20005;-60
2022/10/03 00:06:31;;;;;;;;;;;;;;;;;;5072286;28;20373;-61
2022/10/03 00:08:57;;;;;;;;;;;;;;;;;;5073408;28;20006;-60
2022/10/03 00:11:23;;;;;;;;;;;;;;;;;;5070291;28;19917;-60
2022/10/03 00:13:49;;;;;;;;;;;;;;;;;;5074050;28;19946;-61
2022/10/03 00:16:15;;;;;;;;;;;;;;;;;;5071018;28;20009;-61
2022/10/03 00:18:41;;;;;;;;;;;;;;;;;;5072496;28;19942;-61
2022/10/03 00:21:07;;;;;;;;;;;;;;;;;;5073153;28;19912;-60
2022/10/03 00:23:34;;;;;;;;;;;;;;;;;;5073346;28;20376;-62
2022/10/03 00:26:25;;;;;;;;;;;;;;;;;;5071182;28;19966;-61
2022/10/03 00:28:46;;;;;;;;;;;;;;;;;;5067777;28;19913;-61
2022/10/03 00:31:13;;;;;;;;;;;;;;;;;;5073271;28;19939;-61
2022/10/03 00:33:38;;;;;;;;;;;;;;;;;;5072642;28;19969;-61
2022/10/03 00:36:04;;;;;;;;;;;;;;;;;;5061952;28;20371;-61
2022/10/03 00:38:30;;;;;;;;;;;;;;;;;;5073417;28;19966;-60
2022/10/03 00:40:57;;;;;;;;;;;;;;;;;;5065894;28;19916;-61
2022/10/03 00:43:23;;;;;;;;;;;;;;;;;;5063862;28;19920;-60
2022/10/03 00:45:49;;;;;;;;;;;;;;;;;;5069985;28;19916;-61
2022/10/03 00:48:15;;;;;;;;;;;;;;;;;;5067614;28;19935;-63
2022/10/03 00:50:41;;;;;;;;;;;;;;;;;;5070547;28;19955;-60
2022/10/03 00:53:06;;;;;;;;;;;;;;;;;;5071848;28;20324;-63
2022/10/03 00:55:33;;;;;;;;;;;;;;;;;;5069510;28;19969;-61
2022/10/03 00:57:59;;;;;;;;;;;;;;;;;;5073079;28;19939;-62
2022/10/03 01:00:25;;;;;;;;;;;;;;;;;;5068121;28;19972;-65
2022/10/03 01:02:51;;;;;;;;;;;;;;;;;;5065862;28;19959;-64
2022/10/03 01:05:17;;;;;;;;;;;;;;;;;;5059045;28;19948;-65
2022/10/03 01:07:42;;;;;;;;;;;;;;;;;;5076695;28;19944;-65
2022/10/03 01:10:08;;;;;;;;;;;;;;;;;;5070611;28;20325;-65
2022/10/03 01:12:34;;;;;;;;;;;;;;;;;;5063028;28;19912;-65
2022/10/03 01:15:00;;;;;;;;;;;;;;;;;;5070511;28;20556;-65
2022/10/03 01:17:26;;;;;;;;;;;;;;;;;;5063257;28;20402;-65
2022/10/03 01:19:52;;;;;;;;;;;;;;;;;;5071324;28;19925;-66
2022/10/03 01:22:18;;;;;;;;;;;;;;;;;;5070979;28;20012;-65
2022/10/03 01:24:44;;;;;;;;;;;;;;;;;;5069901;28;20359;-65
2022/10/03 01:27:10;;;;;;;;;;;;;;;;;;5069702;28;19947;-65
2022/10/03 01:32:21;;;;;;;;;;;;;;;;;;5072864;28;19958;-65
2022/10/03 01:34:47;;;;;;;;;;;;;;;;;;5071294;28;20380;-65
2022/10/03 01:37:14;;;;;;;;;;;;;;;;;;5062219;28;20019;-65
2022/10/03 01:39:40;;;;;;;;;;;;;;;;;;5070653;28;19916;-64
2022/10/03 01:42:07;;;;;;;;;;;;;;;;;;5070003;28;19912;-65
2022/10/03 01:44:34;;;;;;;;;;;;;;;;;;5070412;28;19928;-64
2022/10/03 01:47:00;;;;;;;;;;;;;;;;;;5066986;28;19917;-65
2022/10/03 01:49:26;;;;;;;;;;;;;;;;;;5069205;28;19918;-64
2022/10/03 01:51:51;;;;;;;;;;;;;;;;;;5064276;28;19947;-65
2022/10/03 01:54:17;;;;;;;;;;;;;;;;;;5067790;28;20421;-64
2022/10/03 01:56:43;;;;;;;;;;;;;;;;;;5070334;28;19917;-65
2022/10/03 01:59:09;;;;;;;;;;;;;;;;;;5071572;28;19924;-65
2022/10/03 02:01:35;;;;;;;;;;;;;;;;;;5066439;28;19970;-65
2022/10/03 02:04:03;;;;;;;;;;;;;;;;;;5070545;28;20423;-65
2022/10/03 02:06:31;;;;;;;;;;;;;;;;;;5070402;28;20257;-65
2022/10/03 02:08:57;;;;;;;;;;;;;;;;;;5071899;28;19967;-65
2022/10/03 02:11:23;;;;;;;;;;;;;;;;;;5069910;28;20036;-65
2022/10/03 02:13:49;;;;;;;;;;;;;;;;;;5070602;28;19918;-65
2022/10/03 02:16:14;;;;;;;;;;;;;;;;;;5062912;28;19963;-65
2022/10/03 02:18:43;;;;;;;;;;;;;;;;;;5057944;28;19917;-65
2022/10/03 02:21:09;;;;;;;;;;;;;;;;;;5068755;28;19916;-65
2022/10/03 02:23:35;;;;;;;;;;;;;;;;;;5072144;28;20436;-65
2022/10/03 02:26:01;;;;;;;;;;;;;;;;;;5068594;28;19913;-65
2022/10/03 02:28:29;;;;;;;;;;;;;;;;;;5071224;28;20344;-65
2022/10/03 02:30:55;;;;;;;;;;;;;;;;;;5071934;28;20270;-65
2022/10/03 02:33:22;;;;;;;;;;;;;;;;;;5060837;28;20000;-65
2022/10/03 02:35:48;;;;;;;;;;;;;;;;;;5069241;28;19913;-65
2022/10/03 02:38:13;;;;;;;;;;;;;;;;;;5072021;28;19955;-66
2022/10/03 02:40:39;;;;;;;;;;;;;;;;;;5071368;28;20360;-65
2022/10/03 02:43:06;;;;;;;;;;;;;;;;;;5061729;28;19933;-65
2022/10/03 02:45:32;;;;;;;;;;;;;;;;;;5068344;28;19915;-65
2022/10/03 02:47:57;;;;;;;;;;;;;;;;;;5072004;28;19912;-65
2022/10/03 02:50:23;;;;;;;;;;;;;;;;;;5061932;28;19958;-65
2022/10/03 02:52:49;;;;;;;;;;;;;;;;;;5063796;28;19944;-65
2022/10/03 02:55:16;;;;;;;;;;;;;;;;;;5064140;28;20359;-65
2022/10/03 02:57:42;;;;;;;;;;;;;;;;;;5069189;28;19948;-65
2022/10/03 03:00:08;;;;;;;;;;;;;;;;;;5064017;28;19956;-65
2022/10/03 03:02:34;;;;;;;;;;;;;;;;;;5069764;28;19913;-64
2022/10/03 03:05:00;;;;;;;;;;;;;;;;;;5070303;28;19960;-65
2022/10/03 03:07:26;;;;;;;;;;;;;;;;;;5056592;28;19916;-65
2022/10/03 03:09:52;;;;;;;;;;;;;;;;;;5067611;28;19917;-65
2022/10/03 03:12:18;;;;;;;;;;;;;;;;;;5067907;28;20322;-65
2022/10/03 03:14:45;;;;;;;;;;;;;;;;;;5062622;28;19917;-66
2022/10/03 03:17:10;;;;;;;;;;;;;;;;;;5066063;28;19912;-65
2022/10/03 03:19:36;;;;;;;;;;;;;;;;;;5068944;28;20041;-64
2022/10/03 03:22:02;;;;;;;;;;;;;;;;;;5069510;28;19916;-65
2022/10/03 03:24:28;;;;;;;;;;;;;;;;;;5066678;28;20003;-65
2022/10/03 03:26:54;;;;;;;;;;;;;;;;;;5063979;28;20011;-65
2022/10/03 03:29:20;;;;;;;;;;;;;;;;;;5065929;28;19919;-65
2022/10/03 03:31:46;;;;;;;;;;;;;;;;;;5066848;28;19927;-65
2022/10/03 03:34:12;;;;;;;;;;;;;;;;;;5071370;28;20011;-65
2022/10/03 03:36:38;;;;;;;;;;;;;;;;;;5071173;28;19974;-65
2022/10/03 03:39:04;;;;;;;;;;;;;;;;;;5074670;28;19955;-65
2022/10/03 03:41:30;;;;;;;;;;;;;;;;;;5066199;28;19912;-65
2022/10/03 03:43:56;;;;;;;;;;;;;;;;;;5072874;28;20376;-65
2022/10/03 03:46:22;;;;;;;;;;;;;;;;;;5073991;28;19974;-65
2022/10/03 03:48:49;;;;;;;;;;;;;;;;;;5074263;28;19978;-65
2022/10/03 03:51:15;;;;;;;;;;;;;;;;;;5073761;28;19913;-65
2022/10/03 03:53:41;;;;;;;;;;;;;;;;;;5073677;28;19913;-65
2022/10/03 03:56:07;;;;;;;;;;;;;;;;;;5073317;28;19944;-65
2022/10/03 03:58:33;;;;;;;;;;;;;;;;;;5073832;28;19920;-65
2022/10/03 04:00:58;;;;;;;;;;;;;;;;;;5073533;28;20467;-65
2022/10/03 04:03:26;;;;;;;;;;;;;;;;;;5073573;28;20013;-65
2022/10/03 04:05:52;;;;;;;;;;;;;;;;;;5073736;28;19947;-65
2022/10/03 04:08:20;;;;;;;;;;;;;;;;;;5074312;28;20026;-65
2022/10/03 04:10:45;;;;;;;;;;;;;;;;;;5071891;28;19962;-65
2022/10/03 04:13:11;;;;;;;;;;;;;;;;;;5074824;28;20017;-65
2022/10/03 04:15:37;;;;;;;;;;;;;;;;;;5060089;28;20367;-65
2022/10/03 04:20:48;;;;;;;;;;;;;;;;;;5061923;28;19965;-65
2022/10/03 04:23:13;;;;;;;;;;;;;;;;;;5067452;28;19979;-65
2022/10/03 04:25:39;;;;;;;;;;;;;;;;;;5071593;28;19919;-65
2022/10/03 04:28:06;;;;;;;;;;;;;;;;;;5070430;28;19919;-65
2022/10/03 04:30:32;;;;;;;;;;;;;;;;;;5068683;28;19920;-65
2022/10/03 04:32:57;;;;;;;;;;;;;;;;;;5071532;28;19959;-65
2022/10/03 04:35:23;;;;;;;;;;;;;;;;;;5066959;28;19912;-65
2022/10/03 04:37:49;;;;;;;;;;;;;;;;;;5073156;28;19916;-65
2022/10/03 04:40:15;;;;;;;;;;;;;;;;;;5071331;28;20379;-65
2022/10/03 04:42:41;;;;;;;;;;;;;;;;;;5073783;28;19912;-65
2022/10/03 04:45:07;;;;;;;;;;;;;;;;;;5073439;28;20346;-65
2022/10/03 04:47:33;;;;;;;;;;;;;;;;;;5070051;28;19944;-65
2022/10/03 04:49:59;;;;;;;;;;;;;;;;;;5068527;28;19913;-65
2022/10/03 04:52:24;;;;;;;;;;;;;;;;;;5073765;28;19919;-65
2022/10/03 04:54:51;;;;;;;;;;;;;;;;;;5070911;28;19957;-65
2022/10/03 04:57:17;;;;;;;;;;;;;;;;;;5072279;28;19966;-65
2022/10/03 04:59:43;;;;;;;;;;;;;;;;;;5072354;28;19924;-63
2022/10/03 05:02:11;;;;;;;;;;;;;;;;;;5072255;28;19986;-65
2022/10/03 05:04:37;;;;;;;;;;;;;;;;;;5070213;28;19927;-65
2022/10/03 05:07:03;;;;;;;;;;;;;;;;;;5071977;28;19963;-65
2022/10/03 05:09:31;;;;;;;;;;;;;;;;;;5072552;28;19967;-65
2022/10/03 05:11:58;;;;;;;;;;;;;;;;;;5071341;28;19912;-65
2022/10/03 05:14:24;;;;;;;;;;;;;;;;;;5072945;28;19917;-65
2022/10/03 05:16:49;;;;;;;;;;;;;;;;;;5069978;28;19993;-65
2022/10/03 05:19:15;;;;;;;;;;;;;;;;;;5071674;28;20261;-65
2022/10/03 05:21:41;;;;;;;;;;;;;;;;;;5069783;28;19931;-65
2022/10/03 05:24:07;;;;;;;;;;;;;;;;;;5071792;28;19917;-65
2022/10/03 05:26:33;;;;;;;;;;;;;;;;;;5071937;28;19948;-65
2022/10/03 05:29:00;;;;;;;;;;;;;;;;;;5072558;28;19919;-64
2022/10/03 05:31:26;;;;;;;;;;;;;;;;;;5069022;28;19960;-65
2022/10/03 05:33:51;;;;;;;;;;;;;;;;;;5052840;28;19917;-65
2022/10/03 05:36:17;;;;;;;;;;;;;;;;;;5058795;28;19948;-65
2022/10/03 05:38:43;;;;;;;;;;;;;;;;;;5072443;28;19997;-64
2022/10/03 05:41:09;;;;;;;;;;;;;;;;;;5066582;28;19917;-65
2022/10/03 05:43:35;;;;;;;;;;;;;;;;;;5072758;28;19909;-65
2022/10/03 05:46:01;;;;;;;;;;;;;;;;;;5087692;28;19998;-65
2022/10/03 05:48:27;;;;;;;;;;;;;;;;;;5072289;28;19962;-65
2022/10/03 05:50:57;;;;;;;;;;;;;;;;;;5070257;28;19924;-65
2022/10/03 05:53:24;;;;;;;;;;;;;;;;;;5070309;28;20368;-65
2022/10/03 05:55:50;;;;;;;;;;;;;;;;;;5072506;28;19912;-65
2022/10/03 05:58:16;;;;;;;;;;;;;;;;;;5071675;28;20022;-65
2022/10/03 06:00:42;;;;;;;;;;;;;;;;;;5069855;28;19928;-65
2022/10/03 06:03:08;;;;;;;;;;;;;;;;;;5069173;28;20001;-65
2022/10/03 06:05:34;;;;;;;;;;;;;;;;;;5064528;28;19912;-65
2022/10/03 06:08:00;;;;;;;;;;;;;;;;;;5065632;28;20031;-65
2022/10/03 06:10:26;;;;;;;;;;;;;;;;;;5068804;28;19963;-65
2022/10/03 06:12:52;;;;;;;;;;;;;;;;;;5069807;28;19921;-65
2022/10/03 06:15:18;;;;;;;;;;;;;;;;;;5069988;28;19912;-64
2022/10/03 06:17:44;;;;;;;;;;;;;;;;;;5070278;28;19916;-65
2022/10/03 06:20:10;;;;;;;;;;;;;;;;;;5068534;28;20062;-64
2022/10/03 06:22:36;;;;;;;;;;;;;;;;;;5071180;28;20007;-66
2022/10/03 06:25:02;;;;;;;;;;;;;;;;;;5073688;28;20331;-65
2022/10/03 06:27:28;;;;;;;;;;;;;;;;;;5069444;28;19958;-65
2022/10/03 06:29:54;;;;;;;;;;;;;;;;;;5065634;28;19912;-65
2022/10/03 06:32:20;;;;;;;;;;;;;;;;;;5062856;28;19913;-65
2022/10/03 06:34:47;;;;;;;;;;;;;;;;;;5065087;28;19959;-65
2022/10/03 06:37:13;;;;;;;;;;;;;;;;;;5060339;28;19916;-65
2022/10/03 06:39:39;;;;;;;;;;;;;;;;;;5064442;28;20011;-64
2022/10/03 06:42:05;;;;;;;;;;;;;;;;;;5066930;28;20022;-65
2022/10/03 06:44:31;;;;;;;;;;;;;;;;;;5070886;28;19913;-65
2022/10/03 06:46:57;;;;;;;;;;;;;;;;;;5070436;28;20009;-65
2022/10/03 06:49:23;;;;;;;;;;;;;;;;;;5068504;28;20447;-65
2022/10/03 06:51:50;;;;;;;;;;;;;;;;;;5067322;28;19923;-65
2022/10/03 06:54:16;;;;;;;;;;;;;;;;;;5065169;28;19955;-66
2022/10/03 06:56:42;;;;;;;;;;;;;;;;;;5054353;28;20379;-65
2022/10/03 06:59:08;;;;;;;;;;;;;;;;;;5064953;28;19927;-65
2022/10/03 07:01:34;;;;;;;;;;;;;;;;;;5060871;28;20298;-65
2022/10/03 07:04:00;;;;;;;;;;;;;;;;;;5065282;28;19912;-65
2022/10/03 07:06:26;;;;;;;;;;;;;;;;;;5067804;28;19917;-65
2022/10/03 07:08:52;;;;;;;;;;;;;;;;;;5062981;28;19913;-64
2022/10/03 07:11:19;;;;;;;;;;;;;;;;;;5065663;28;20028;-64
2022/10/03 07:13:45;;;;;;;;;;;;;;;;;;5065323;28;19951;-64
2022/10/03 07:16:11;;;;;;;;;;;;;;;;;;5064591;28;19952;-65
2022/10/03 07:18:37;;;;;;;;;;;;;;;;;;5069665;28;19944;-65
2022/10/03 07:21:03;;;;;;;;;;;;;;;;;;5070495;28;20358;-65
2022/10/03 07:23:28;;;;;;;;;;;;;;;;;;5069917;28;19916;-66
2022/10/03 07:25:54;;;;;;;;;;;;;;;;;;5064725;28;19964;-65
2022/10/03 07:28:20;;;;;;;;;;;;;;;;;;5071005;28;19943;-65
2022/10/03 07:30:46;;;;;;;;;;;;;;;;;;5069310;28;19941;-66
2022/10/03 07:33:12;;;;;;;;;;;;;;;;;;5066505;28;19934;-65
2022/10/03 07:41:15;;;;;;;;;;;;;;;;;;5054331;28;19939;-65
2022/10/03 07:43:41;;;;;;;;;;;;;;;;;;5069519;28;20388;-65
2022/10/03 07:46:07;;;;;;;;;;;;;;;;;;5071003;28;20037;-65
2022/10/03 07:48:33;;;;;;;;;;;;;;;;;;5067253;28;19989;-65
2022/10/03 07:50:59;;;;;;;;;;;;;;;;;;5063975;28;19916;-66
2022/10/03 07:53:24;;;;;;;;;;;;;;;;;;5060266;28;19920;-65
2022/10/03 07:55:50;;;;;;;;;;;;;;;;;;5060149;28;20363;-65
2022/10/03 07:58:17;;;;;;;;;;;;;;;;;;5068149;28;19916;-65
2022/10/03 08:00:42;;;;;;;;;;;;;;;;;;5084968;28;19925;-65
2022/10/03 08:03:09;;;;;;;;;;;;;;;;;;5058935;28;19919;-65
2022/10/03 08:05:36;;;;;;;;;;;;;;;;;;5070554;28;19985;-66
2022/10/03 08:08:02;;;;;;;;;;;;;;;;;;5075057;28;20253;-65
2022/10/03 08:10:28;;;;;;;;;;;;;;;;;;5067854;28;19912;-65
2022/10/03 08:12:54;;;;;;;;;;;;;;;;;;5070645;28;19962;-65
2022/10/03 08:15:20;;;;;;;;;;;;;;;;;;5070742;28;19975;-65
2022/10/03 08:17:46;;;;;;;;;;;;;;;;;;5068843;28;20019;-65
2022/10/03 08:20:12;;;;;;;;;;;;;;;;;;5070349;28;19956;-66
2022/10/03 08:22:38;;;;;;;;;;;;;;;;;;5069445;28;19963;-65
2022/10/03 08:25:05;;;;;;;;;;;;;;;;;;5067715;28;19920;-65
2022/10/03 08:27:31;;;;;;;;;;;;;;;;;;5069079;28;19912;-65
2022/10/03 08:29:57;;;;;;;;;;;;;;;;;;5073519;28;20315;-64
2022/10/03 08:32:22;;;;;;;;;;;;;;;;;;5071056;28;19944;-65
2022/10/03 08:34:48;;;;;;;;;;;;;;;;;;5073829;28;19934;-65
2022/10/03 08:37:14;;;;;;;;;;;;;;;;;;5069598;28;19963;-65
2022/10/03 08:39:40;;;;;;;;;;;;;;;;;;5073819;28;19952;-64
2022/10/03 08:42:06;;;;;;;;;;;;;;;;;;5073535;28;19922;-64
2022/10/03 08:44:32;;;;;;;;;;;;;;;;;;5072966;28;20374;-65
2022/10/03 08:47:01;;;;;;;;;;;;;;;;;;5073972;28;19999;-65
2022/10/03 08:49:27;;;;;;;;;;;;;;;;;;5074044;28;19913;-65
2022/10/03 08:51:53;;;;;;;;;;;;;;;;;;5069831;28;19916;-65
2022/10/03 08:54:18;;;;;;;;;;;;;;;;;;5067760;28;19924;-65
2022/10/03 08:56:44;;;;;;;;;;;;;;;;;;5067699;28;19999;-65
2022/10/03 08:59:11;;;;;;;;;;;;;;;;;;5070209;28;19935;-65
2022/10/03 09:01:36;;;;;;;;;;;;;;;;;;5073286;28;19924;-65
2022/10/03 09:04:02;;;;;;;;;;;;;;;;;;5073622;28;20277;-65
2022/10/03 09:06:28;;;;;;;;;;;;;;;;;;5069044;28;20003;-65
2022/10/03 09:08:55;;;;;;;;;;;;;;;;;;5067400;28;19958;-65
2022/10/03 09:11:21;;;;;;;;;;;;;;;;;;5069061;28;20279;-65
2022/10/03 09:13:47;;;;;;;;;;;;;;;;;;5053543;28;19916;-65
2022/10/03 09:16:13;;;;;;;;;;;;;;;;;;5063967;28;19921;-64
2022/10/03 09:18:40;;;;;;;;;;;;;;;;;;5073446;28;19934;-65
2022/10/03 09:21:06;;;;;;;;;;;;;;;;;;5071589;28;19955;-65
2022/10/03 09:23:32;;;;;;;;;;;;;;;;;;5070872;28;19958;-65
2022/10/03 09:25:58;;;;;;;;;;;;;;;;;;5071279;28;19999;-65
2022/10/03 09:28:23;;;;;;;;;;;;;;;;;;5073046;28;19908;-65
2022/10/03 09:30:49;;;;;;;;;;;;;;;;;;5071491;28;20376;-65
2022/10/03 09:33:15;;;;;;;;;;;;;;;;;;5072409;28;19915;-65
2022/10/03 09:35:41;;;;;;;;;;;;;;;;;;5065897;28;20335;-65
2022/10/03 09:38:07;;;;;;;;;;;;;;;;;;5053903;28;19951;-65
2022/10/03 09:40:33;;;;;;;;;;;;;;;;;;5053341;28;19963;-65
2022/10/03 09:42:59;;;;;;;;;;;;;;;;;;5071455;28;19916;-64
2022/10/03 09:45:25;;;;;;;;;;;;;;;;;;5071287;28;20007;-65
2022/10/03 09:47:51;;;;;;;;;;;;;;;;;;5069102;28;19995;-65
2022/10/03 09:50:18;;;;;;;;;;;;;;;;;;5065715;28;19959;-65
2022/10/03 09:52:44;;;;;;;;;;;;;;;;;;5063291;28;19927;-65
2022/10/03 09:55:11;;;;;;;;;;;;;;;;;;5061952;28;19914;-65
2022/10/03 09:57:37;;;;;;;;;;;;;;;;;;5074181;28;19935;-60
2022/10/03 10:00:03;;;;;;;;;;;;;;;;;;5069853;28;19963;-65
2022/10/03 10:02:29;;;;;;;;;;;;;;;;;;5063026;28;20000;-65
2022/10/03 10:04:55;;;;;;;;;;;;;;;;;;5071413;28;20028;-64
2022/10/03 10:07:21;;;;;;;;;;;;;;;;;;5070073;28;20592;-65
2022/10/03 10:09:47;;;;;;;;;;;;;;;;;;5069307;28;19950;-65
2022/10/03 10:12:13;;;;;;;;;;;;;;;;;;5071963;28;19988;-65
2022/10/03 10:14:39;;;;;;;;;;;;;;;;;;5071323;28;19943;-65
2022/10/03 10:17:05;;;;;;;;;;;;;;;;;;5070772;28;19917;-64
2022/10/03 10:19:31;;;;;;;;;;;;;;;;;;5068548;28;19921;-66
2022/10/03 10:21:56;;;;;;;;;;;;;;;;;;5061461;28;20423;-65
2022/10/03 10:24:22;;;;;;;;;;;;;;;;;;5073120;28;19916;-65
2022/10/03 10:26:48;;;;;;;;;;;;;;;;;;5067914;28;20572;-65
2022/10/03 10:29:14;;;;;;;;;;;;;;;;;;5068405;28;20005;-65
2022/10/03 10:31:40;;;;;;;;;;;;;;;;;;5068738;28;19912;-65
2022/10/03 10:34:06;;;;;;;;;;;;;;;;;;5070170;28;20045;-65
2022/10/03 10:36:32;;;;;;;;;;;;;;;;;;5069926;28;19935;-65
2022/10/03 10:38:59;;;;;;;;;;;;;;;;;;5075762;28;20376;-65
2022/10/03 10:41:24;;;;;;;;;;;;;;;;;;5071178;28;20256;-65
2022/10/03 10:43:51;;;;;;;;;;;;;;;;;;5069745;28;19965;-65
2022/10/03 10:46:17;;;;;;;;;;;;;;;;;;5063775;28;19920;-65
2022/10/03 10:48:42;;;;;;;;;;;;;;;;;;5067773;28;20021;-65
2022/10/03 10:51:08;;;;;;;;;;;;;;;;;;5069653;28;19943;-65
2022/10/03 10:53:36;;;;;;;;;;;;;;;;;;5071441;28;19908;-65
2022/10/03 10:56:03;;;;;;;;;;;;;;;;;;5071344;28;19916;-65
2022/10/03 10:58:29;;;;;;;;;;;;;;;;;;5074987;28;19955;-64
2022/10/03 11:00:55;;;;;;;;;;;;;;;;;;5070271;28;19977;-65
2022/10/03 11:03:21;;;;;;;;;;;;;;;;;;5062603;28;20074;-65
2022/10/03 11:05:47;;;;;;;;;;;;;;;;;;5061579;28;19912;-65
2022/10/03 11:08:13;;;;;;;;;;;;;;;;;;5068168;28;19970;-65
2022/10/03 11:10:38;;;;;;;;;;;;;;;;;;5070775;28;19944;-65
2022/10/03 11:13:05;;;;;;;;;;;;;;;;;;5061955;28;19913;-65
2022/10/03 11:15:35;;;;;;;;;;;;;;;;;;5069834;28;19908;-65
2022/10/03 11:18:01;;;;;;;;;;;;;;;;;;5065638;28;19912;-64
2022/10/03 11:20:27;;;;;;;;;;;;;;;;;;5066695;28;19952;-64
2022/10/03 11:22:53;;;;;;;;;;;;;;;;;;5070543;28;20291;-65
2022/10/03 11:25:19;;;;;;;;;;;;;;;;;;5071189;28;20007;-65
2022/10/03 11:27:45;;;;;;;;;;;;;;;;;;5069512;28;19961;-65
2022/10/03 11:30:11;;;;;;;;;;;;;;;;;;5061804;28;19944;-65
2022/10/03 11:32:36;;;;;;;;;;;;;;;;;;5069120;28;19931;-65
2022/10/03 11:35:02;;;;;;;;;;;;;;;;;;5065992;28;19912;-65
2022/10/03 11:37:28;;;;;;;;;;;;;;;;;;5064560;28;20403;-64
2022/10/03 11:39:54;;;;;;;;;;;;;;;;;;5064625;28;19944;-65
2022/10/03 11:42:20;;;;;;;;;;;;;;;;;;5069491;28;20046;-65
2022/10/03 11:44:46;;;;;;;;;;;;;;;;;;5068938;28;19957;-65
2022/10/03 11:47:12;;;;;;;;;;;;;;;;;;5069267;28;20356;-65
2022/10/03 11:49:38;;;;;;;;;;;;;;;;;;5070618;28;19995;-65
2022/10/03 11:52:04;;;;;;;;;;;;;;;;;;5069710;28;20645;-65
2022/10/03 11:54:30;;;;;;;;;;;;;;;;;;5070682;28;19920;-65
2022/10/03 11:56:56;;;;;;;;;;;;;;;;;;5063762;28;19909;-65
2022/10/03 11:59:22;;;;;;;;;;;;;;;;;;5065067;28;19978;-65
2022/10/03 12:01:49;;;;;;;;;;;;;;;;;;5074017;28;20284;-65
2022/10/03 12:04:15;;;;;;;;;;;;;;;;;;5072624;28;19916;-64
2022/10/03 12:09:25;;;;;;;;;;;;;;;;;;5071616;28;19923;-65
2022/10/03 12:11:52;;;;;;;;;;;;;;;;;;5073566;28;19963;-64
2022/10/03 12:14:18;;;;;;;;;;;;;;;;;;5073695;28;19917;-64
2022/10/03 12:16:44;;;;;;;;;;;;;;;;;;5070456;28;19912;-63
2022/10/03 12:19:10;;;;;;;;;;;;;;;;;;5068771;28;19955;-63
2022/10/03 12:21:36;;;;;;;;;;;;;;;;;;5073351;28;20463;-63
2022/10/03 12:24:02;;;;;;;;;;;;;;;;;;5073135;28;19923;-64
2022/10/03 12:26:28;;;;;;;;;;;;;;;;;;5071743;28;19916;-64
2022/10/03 12:28:54;;;;;;;;;;;;;;;;;;5069195;28;19948;-64
2022/10/03 12:31:20;;;;;;;;;;;;;;;;;;5065566;28;20439;-64
2022/10/03 12:33:46;;;;;;;;;;;;;;;;;;5067954;28;20372;-64
2022/10/03 12:36:14;;;;;;;;;;;;;;;;;;5067370;28;19916;-65
2022/10/03 12:38:40;;;;;;;;;;;;;;;;;;5074015;28;19915;-65
2022/10/03 12:41:06;;;;;;;;;;;;;;;;;;5073366;28;19912;-65
2022/10/03 12:43:34;;;;;;;;;;;;;;;;;;5073297;28;19943;-66
2022/10/03 12:46:00;;;;;;;;;;;;;;;;;;5066556;28;19935;-66
2022/10/03 12:48:26;;;;;;;;;;;;;;;;;;5073646;28;20275;-66
2022/10/03 12:50:55;;;;;;;;;;;;;;;;;;5077927;28;19960;-65
2022/10/03 12:53:22;;;;;;;;;;;;;;;;;;5076916;28;19955;-66
2022/10/03 12:55:48;;;;;;;;;;;;;;;;;;5072478;28;19919;-66
2022/10/03 12:58:14;;;;;;;;;;;;;;;;;;5071895;28;19917;-63
2022/10/03 13:00:40;;;;;;;;;;;;;;;;;;5072534;28;20351;-66
2022/10/03 13:03:06;;;;;;;;;;;;;;;;;;5069001;28;20016;-66
2022/10/03 13:05:32;;;;;;;;;;;;;;;;;;5073672;28;19916;-66
2022/10/03 13:08:00;;;;;;;;;;;;;;;;;;5071655;28;19959;-65
2022/10/03 13:10:26;;;;;;;;;;;;;;;;;;5067287;28;20343;-66
2022/10/03 13:12:53;;;;;;;;;;;;;;;;;;5068221;28;19917;-66
2022/10/03 13:15:19;;;;;;;;;;;;;;;;;;5071560;28;20265;-66
2022/10/03 13:17:48;;;;;;;;;;;;;;;;;;5057641;28;19977;-66
2022/10/03 13:20:14;;;;;;;;;;;;;;;;;;5072461;28;19918;-66
2022/10/03 13:22:40;;;;;;;;;;;;;;;;;;5068611;28;19999;-66
2022/10/03 13:25:06;;;;;;;;;;;;;;;;;;5069782;28;20372;-66
2022/10/03 13:27:32;;;;;;;;;;;;;;;;;;5072790;28;19919;-67
2022/10/03 13:29:58;;;;;;;;;;;;;;;;;;5071646;28;20000;-64
2022/10/03 13:32:24;;;;;;;;;;;;;;;;;;5070848;28;20015;-65
2022/10/03 13:34:50;;;;;;;;;;;;;;;;;;5070875;28;19919;-64
2022/10/03 13:37:16;;;;;;;;;;;;;;;;;;5068104;28;20003;-64
2022/10/03 13:39:43;;;;;;;;;;;;;;;;;;5066011;28;19920;-63
2022/10/03 13:42:09;;;;;;;;;;;;;;;;;;5066407;28;19916;-64
2022/10/03 13:44:35;;;;;;;;;;;;;;;;;;5064749;28;19921;-64
2022/10/03 13:47:01;;;;;;;;;;;;;;;;;;5068335;28;19913;-65
2022/10/03 13:49:31;;;;;;;;;;;;;;;;;;5070198;28;20340;-63
2022/10/03 13:51:58;;;;;;;;;;;;;;;;;;5072406;28;19936;-64
2022/10/03 13:54:24;;;;;;;;;;;;;;;;;;5070874;28;20402;-64
2022/10/03 13:56:50;;;;;;;;;;;;;;;;;;5070189;28;19913;-66
2022/10/03 13:59:16;;;;;;;;;;;;;;;;;;5071830;28;19926;-65
2022/10/03 14:01:42;;;;;;;;;;;;;;;;;;5070481;28;19920;-64
2022/10/03 14:04:08;;;;;;;;;;;;;;;;;;5070341;28;19916;-65
2022/10/03 14:06:34;;;;;;;;;;;;;;;;;;5070655;28;20376;-64
2022/10/03 14:09:00;;;;;;;;;;;;;;;;;;5071940;28;19915;-66
2022/10/03 14:11:26;;;;;;;;;;;;;;;;;;5070591;28;19951;-65
2022/10/03 14:13:52;;;;;;;;;;;;;;;;;;5069347;28;19917;-64
2022/10/03 14:16:19;;;;;;;;;;;;;;;;;;5068662;28;20057;-64
2022/10/03 14:18:45;;;;;;;;;;;;;;;;;;5068064;28;20260;-64
2022/10/03 14:21:11;;;;;;;;;;;;;;;;;;5066049;28;19974;-65
2022/10/03 14:23:37;;;;;;;;;;;;;;;;;;5069227;28;20033;-65
2022/10/03 14:26:03;;;;;;;;;;;;;;;;;;5068171;28;19944;-65
2022/10/03 14:28:29;;;;;;;;;;;;;;;;;;5070720;28;19924;-65
2022/10/03 14:30:55;;;;;;;;;;;;;;;;;;5070682;28;20021;-65
2022/10/03 14:33:22;;;;;;;;;;;;;;;;;;5062467;28;19964;-66
2022/10/03 14:35:48;;;;;;;;;;;;;;;;;;5065601;28;19975;-65
2022/10/03 14:38:14;;;;;;;;;;;;;;;;;;5066804;28;19972;-64
2022/10/03 14:40:40;;;;;;;;;;;;;;;;;;5066240;28;20385;-68
2022/10/03 14:43:06;;;;;;;;;;;;;;;;;;5066727;28;20101;-63
2022/10/03 14:45:32;;;;;;;;;;;;;;;;;;5069502;28;19912;-67
2022/10/03 14:47:57;;;;;;;;;;;;;;;;;;5069760;28;19967;-64
2022/10/03 14:50:23;;;;;;;;;;;;;;;;;;5070348;28;19935;-64
2022/10/03 14:52:50;;;;;;;;;;;;;;;;;;5067279;28;19952;-66
2022/10/03 14:55:16;;;;;;;;;;;;;;;;;;5068567;28;19916;-66
2022/10/03 14:57:42;;;;;;;;;;;;;;;;;;5064124;28;19909;-66
2022/10/03 15:00:08;;;;;;;;;;;;;;;;;;5068816;28;19966;-66
2022/10/03 15:02:35;;;;;;;;;;;;;;;;;;5068043;28;19921;-66
2022/10/03 15:05:01;;;;;;;;;;;;;;;;;;5067447;28;19917;-66
2022/10/03 15:07:27;;;;;;;;;;;;;;;;;;5070380;28;19916;-66
2022/10/03 15:09:56;;;;;;;;;;;;;;;;;;5061416;28;19960;-66
2022/10/03 15:12:23;;;;;;;;;;;;;;;;;;5060514;28;20348;-66
2022/10/03 15:14:49;;;;;;;;;;;;;;;;;;5068179;28;19917;-66
2022/10/03 15:17:15;;;;;;;;;;;;;;;;;;5067370;28;19967;-66
2022/10/03 15:19:43;;;;;;;;;;;;;;;;;;5069310;28;19943;-65
2022/10/03 15:22:09;;;;;;;;;;;;;;;;;;5069543;28;19917;-66
2022/10/03 15:24:35;;;;;;;;;;;;;;;;;;5071045;28;19912;-66
2022/10/03 15:27:01;;;;;;;;;;;;;;;;;;5070685;28;19931;-66
2022/10/03 15:29:27;;;;;;;;;;;;;;;;;;5066453;28;19947;-65
2022/10/03 15:31:53;;;;;;;;;;;;;;;;;;5070466;28;19978;-66
2022/10/03 15:34:19;;;;;;;;;;;;;;;;;;5075131;28;19908;-64
2022/10/03 15:36:44;;;;;;;;;;;;;;;;;;5074194;28;19920;-64
2022/10/03 15:39:10;;;;;;;;;;;;;;;;;;5072523;28;19928;-64
2022/10/03 15:41:36;;;;;;;;;;;;;;;;;;5071878;28;19954;-63
2022/10/03 15:44:05;;;;;;;;;;;;;;;;;;5072010;28;20271;-66
2022/10/03 15:46:31;;;;;;;;;;;;;;;;;;5079268;28;19969;-65
2022/10/03 15:48:57;;;;;;;;;;;;;;;;;;5067817;28;19955;-65
2022/10/03 15:51:25;;;;;;;;;;;;;;;;;;5072401;28;19995;-64
2022/10/03 15:53:51;;;;;;;;;;;;;;;;;;5071189;28;19968;-64
2022/10/03 15:56:17;;;;;;;;;;;;;;;;;;5074346;28;19987;-64
2022/10/03 15:58:43;;;;;;;;;;;;;;;;;;5074818;28;19916;-64
2022/10/03 16:01:10;;;;;;;;;;;;;;;;;;5072351;28;19923;-61
2022/10/03 16:03:35;;;;;;;;;;;;;;;;;;5074102;28;19916;-64
2022/10/03 16:06:01;;;;;;;;;;;;;;;;;;5069220;28;20316;-64
2022/10/03 16:08:27;;;;;;;;;;;;;;;;;;5071584;28;19934;-64
2022/10/03 16:10:53;;;;;;;;;;;;;;;;;;5073635;28;19985;-64
2022/10/03 16:13:19;;;;;;;;;;;;;;;;;;5074485;28;19944;-64
2022/10/03 16:15:45;;;;;;;;;;;;;;;;;;5074397;28;19919;-63
2022/10/03 16:18:11;;;;;;;;;;;;;;;;;;5073815;28;19920;-63
2022/10/03 16:20:37;;;;;;;;;;;;;;;;;;5071578;28;19978;-64
2022/10/03 16:23:03;;;;;;;;;;;;;;;;;;5073897;28;20406;-63
2022/10/03 16:25:29;;;;;;;;;;;;;;;;;;5071881;28;19920;-63
2022/10/03 16:27:55;;;;;;;;;;;;;;;;;;5068559;28;20013;-64
2022/10/03 16:30:21;;;;;;;;;;;;;;;;;;5070564;28;19940;-64
2022/10/03 16:32:48;;;;;;;;;;;;;;;;;;5070099;28;19920;-64
2022/10/03 16:35:14;;;;;;;;;;;;;;;;;;5066321;28;19923;-64
2022/10/03 16:37:40;;;;;;;;;;;;;;;;;;5071477;28;20007;-64
2022/10/03 16:40:06;;;;;;;;;;;;;;;;;;5068603;28;19912;-64
2022/10/03 16:42:32;;;;;;;;;;;;;;;;;;5070415;28;19916;-64
2022/10/03 16:45:00;;;;;;;;;;;;;;;;;;5060608;28;20502;-64
2022/10/03 16:47:26;;;;;;;;;;;;;;;;;;5061469;28;19917;-64
2022/10/03 16:52:37;;;;;;;;;;;;;;;;;;5073883;28;19931;-64
2022/10/03 16:55:03;;;;;;;;;;;;;;;;;;5071006;28;19913;-66